^^
Station Historical Data
Daily Summary for January 25, 2018 Units:  Both    English   Metric
« Previous Day
Next Day »
Daily Weekly Monthly Yearly Custom
  High: Low: Average:
Temperature: TemperatureF °F /  -17.8 °C 71.8 °F /  22.1 °C 79.4 °F /  26.3 °C
Dew Point: DewpointF °F /  -17.8 °C 41.9 °F /  5.5 °C 44.9 °F /  7.2 °C
Humidity: Humidity% 27% 29%
Wind Speed: WindSpeedMPHmph /  0km/h - -15.1mph /  -24.3km/h
Wind Gust: WindSpeedGustMPHmph /  0km/h - -
Wind- -
Pressure: PressureIn in /  0 hPa 29.50 in /  998.9 hPa -
Precipitation: 0.00 in /  0 mm    
Historical Graphs
 
 
Tabular Data for January 25, 2018
Time Temperature Dew Point Pressure Wind Wind Speed Wind Gust Humidity Rainfall Rate (Hourly) solar Conditions
TemperatureF °F /  -17.8 °C DewpointF °F /  -17.8 °C PressureInin /  0hPa Calm     Humidity% HourlyPrecipInin /  0mm SoftwareType W/m2 Conditions
08:43 71.8 °F /  22.1 °C 41.9 °F /  5.5 °C 29.60in /  1002.3hPa North -999.9mph /  -1609.1km/h -999.0mph /  -1607.7km/h 34% 0.00in /  0mm meteobridge W/m2
08:50 72.0 °F /  22.2 °C 42.1 °F /  5.6 °C 29.60in /  1002.3hPa NNW 2.0mph /  3.2km/h 3.0mph /  4.8km/h 34% 0.00in /  0mm meteobridge W/m2
08:56 72.7 °F /  22.6 °C 41.9 °F /  5.5 °C 29.61in /  1002.6hPa NNW 8.9mph /  14.3km/h 10.0mph /  16.1km/h 33% 0.00in /  0mm meteobridge W/m2
09:02 72.5 °F /  22.5 °C 42.6 °F /  5.9 °C 29.61in /  1002.6hPa North 4.9mph /  7.9km/h 5.0mph /  8km/h 34% 0.00in /  0mm meteobridge W/m2
09:08 72.3 °F /  22.4 °C 42.4 °F /  5.8 °C 29.61in /  1002.6hPa Calm   3.0mph /  4.8km/h 34% 0.00in /  0mm meteobridge W/m2
09:14 72.9 °F /  22.7 °C 42.8 °F /  6 °C 29.61in /  1002.6hPa NNW 2.9mph /  4.7km/h 7.0mph /  11.3km/h 34% 0.00in /  0mm meteobridge W/m2
09:20 73.2 °F /  22.9 °C 43.2 °F /  6.2 °C 29.61in /  1002.6hPa North 2.9mph /  4.7km/h 5.0mph /  8km/h 34% 0.00in /  0mm meteobridge W/m2
09:27 73.6 °F /  23.1 °C 43.5 °F /  6.4 °C 29.61in /  1002.6hPa NNE 2.0mph /  3.2km/h 6.0mph /  9.7km/h 34% 0.00in /  0mm meteobridge W/m2
09:33 74.1 °F /  23.4 °C 43.9 °F /  6.6 °C 29.61in /  1002.6hPa North 4.0mph /  6.4km/h 4.0mph /  6.4km/h 34% 0.00in /  0mm meteobridge W/m2
09:39 74.8 °F /  23.8 °C 43.9 °F /  6.6 °C 29.61in /  1002.6hPa Calm   1.0mph /  1.6km/h 33% 0.00in /  0mm meteobridge W/m2
09:45 74.8 °F /  23.8 °C 43.9 °F /  6.6 °C 29.61in /  1002.6hPa NNE 2.0mph /  3.2km/h 6.0mph /  9.7km/h 33% 0.00in /  0mm meteobridge W/m2
09:51 74.3 °F /  23.5 °C 43.3 °F /  6.3 °C 29.62in /  1002.9hPa North 2.0mph /  3.2km/h 5.0mph /  8km/h 33% 0.00in /  0mm meteobridge W/m2
10:13 75.6 °F /  24.2 °C 44.4 °F /  6.9 °C 29.62in /  1002.9hPa North 4.0mph /  6.4km/h 8.0mph /  12.9km/h 33% 0.00in /  0mm meteobridge W/m2
10:20 75.0 °F /  23.9 °C 44.8 °F /  7.1 °C 29.62in /  1002.9hPa North 2.0mph /  3.2km/h 7.0mph /  11.3km/h 34% 0.00in /  0mm meteobridge W/m2
10:26 75.7 °F /  24.3 °C 44.6 °F /  7 °C 29.62in /  1002.9hPa NNE 0.9mph /  1.4km/h 3.0mph /  4.8km/h 33% 0.00in /  0mm meteobridge W/m2
10:32 76.5 °F /  24.7 °C 45.1 °F /  7.3 °C 29.62in /  1002.9hPa East 4.0mph /  6.4km/h 6.0mph /  9.7km/h 33% 0.00in /  0mm meteobridge W/m2
10:38 77.4 °F /  25.2 °C 45.1 °F /  7.3 °C 29.62in /  1002.9hPa ENE 4.9mph /  7.9km/h 5.0mph /  8km/h 32% 0.00in /  0mm meteobridge W/m2
10:44 78.6 °F /  25.9 °C 45.5 °F /  7.5 °C 29.61in /  1002.6hPa ESE 2.9mph /  4.7km/h 3.0mph /  4.8km/h 31% 0.00in /  0mm meteobridge W/m2
10:50 79.3 °F /  26.3 °C 45.1 °F /  7.3 °C 29.61in /  1002.6hPa ESE 0.9mph /  1.4km/h 3.0mph /  4.8km/h 30% 0.00in /  0mm meteobridge W/m2
10:56 79.3 °F /  26.3 °C 45.1 °F /  7.3 °C 29.61in /  1002.6hPa SE 2.9mph /  4.7km/h 5.0mph /  8km/h 30% 0.00in /  0mm meteobridge W/m2
11:02 80.1 °F /  26.7 °C 45.9 °F /  7.7 °C 29.61in /  1002.6hPa ESE 2.0mph /  3.2km/h 2.0mph /  3.2km/h 30% 0.00in /  0mm meteobridge W/m2
11:08 79.2 °F /  26.2 °C 45.1 °F /  7.3 °C 29.61in /  1002.6hPa Calm   8.0mph /  12.9km/h 30% 0.00in /  0mm meteobridge W/m2
11:15 77.7 °F /  25.4 °C 44.6 °F /  7 °C 29.61in /  1002.6hPa Calm   4.0mph /  6.4km/h 31% 0.00in /  0mm meteobridge W/m2
11:21 78.4 °F /  25.8 °C 44.4 °F /  6.9 °C 29.60in /  1002.3hPa SE 0.9mph /  1.4km/h 4.0mph /  6.4km/h 30% 0.00in /  0mm meteobridge W/m2
11:43 79.3 °F /  26.3 °C 45.1 °F /  7.3 °C 29.61in /  1002.6hPa ESE 2.9mph /  4.7km/h 6.0mph /  9.7km/h 30% 0.00in /  0mm meteobridge W/m2
11:49 79.0 °F /  26.1 °C 45.0 °F /  7.2 °C 29.60in /  1002.3hPa SE 4.9mph /  7.9km/h 10.0mph /  16.1km/h 30% 0.00in /  0mm meteobridge W/m2
11:55 80.4 °F /  26.9 °C 45.3 °F /  7.4 °C 29.60in /  1002.3hPa SE 0.9mph /  1.4km/h 10.0mph /  16.1km/h 29% 0.00in /  0mm meteobridge W/m2
12:02 80.2 °F /  26.8 °C 45.1 °F /  7.3 °C 29.60in /  1002.3hPa Calm     29% 0.00in /  0mm meteobridge W/m2
12:08 80.4 °F /  26.9 °C 45.3 °F /  7.4 °C 29.60in /  1002.3hPa SSE 0.9mph /  1.4km/h 10.0mph /  16.1km/h 29% 0.00in /  0mm meteobridge W/m2
12:14 79.2 °F /  26.2 °C 45.1 °F /  7.3 °C 29.59in /  1001.9hPa SE 2.9mph /  4.7km/h 7.0mph /  11.3km/h 30% 0.00in /  0mm meteobridge W/m2
12:20 80.1 °F /  26.7 °C 45.9 °F /  7.7 °C 29.58in /  1001.6hPa ESE 4.9mph /  7.9km/h 7.0mph /  11.3km/h 30% 0.00in /  0mm meteobridge W/m2
12:26 80.8 °F /  27.1 °C 45.5 °F /  7.5 °C 29.59in /  1001.9hPa South 6.0mph /  9.7km/h 6.0mph /  9.7km/h 29% 0.00in /  0mm meteobridge W/m2
12:32 80.8 °F /  27.1 °C 45.5 °F /  7.5 °C 29.59in /  1001.9hPa SSW 4.0mph /  6.4km/h 5.0mph /  8km/h 29% 0.00in /  0mm meteobridge W/m2
12:38 81.1 °F /  27.3 °C 45.9 °F /  7.7 °C 29.59in /  1001.9hPa SSE 0.9mph /  1.4km/h 5.0mph /  8km/h 29% 0.00in /  0mm meteobridge W/m2
12:44 82.2 °F /  27.9 °C 45.9 °F /  7.7 °C 29.59in /  1001.9hPa SSE 2.9mph /  4.7km/h 6.0mph /  9.7km/h 28% 0.00in /  0mm meteobridge W/m2
12:51 81.3 °F /  27.4 °C 45.1 °F /  7.3 °C 29.57in /  1001.2hPa South 4.9mph /  7.9km/h 14.0mph /  22.5km/h 28% 0.00in /  0mm meteobridge W/m2
12:57 80.4 °F /  26.9 °C 45.3 °F /  7.4 °C 29.58in /  1001.6hPa SSW 4.0mph /  6.4km/h 16.0mph /  25.7km/h 29% 0.00in /  0mm meteobridge W/m2
13:03 80.4 °F /  26.9 °C 45.3 °F /  7.4 °C 29.58in /  1001.6hPa NE 0.9mph /  1.4km/h 4.0mph /  6.4km/h 29% 0.00in /  0mm meteobridge W/m2
13:09 81.1 °F /  27.3 °C 45.9 °F /  7.7 °C 29.57in /  1001.2hPa South 2.9mph /  4.7km/h 11.0mph /  17.7km/h 29% 0.00in /  0mm meteobridge W/m2
13:15 82.2 °F /  27.9 °C 45.9 °F /  7.7 °C 29.57in /  1001.2hPa South 6.9mph /  11.1km/h 19.0mph /  30.6km/h 28% 0.00in /  0mm meteobridge W/m2
13:21 81.3 °F /  27.4 °C 46.0 °F /  7.8 °C 29.57in /  1001.2hPa SSE 4.9mph /  7.9km/h 15.0mph /  24.1km/h 29% 0.00in /  0mm meteobridge W/m2
13:27 80.4 °F /  26.9 °C 45.3 °F /  7.4 °C 29.57in /  1001.2hPa South 4.0mph /  6.4km/h 6.0mph /  9.7km/h 29% 0.00in /  0mm meteobridge W/m2
13:33 81.1 °F /  27.3 °C 45.9 °F /  7.7 °C 29.57in /  1001.2hPa SE 4.0mph /  6.4km/h 9.0mph /  14.5km/h 29% 0.00in /  0mm meteobridge W/m2
13:39 80.6 °F /  27 °C 45.3 °F /  7.4 °C 29.56in /  1000.9hPa East 2.9mph /  4.7km/h 7.0mph /  11.3km/h 29% 0.00in /  0mm meteobridge W/m2
13:45 82.2 °F /  27.9 °C 45.9 °F /  7.7 °C 29.56in /  1000.9hPa SSW 6.0mph /  9.7km/h 10.0mph /  16.1km/h 28% 0.00in /  0mm meteobridge W/m2
13:51 82.9 °F /  28.3 °C 45.5 °F /  7.5 °C 29.56in /  1000.9hPa NE 2.9mph /  4.7km/h 9.0mph /  14.5km/h 27% 0.00in /  0mm meteobridge W/m2
13:57 82.9 °F /  28.3 °C 45.5 °F /  7.5 °C 29.56in /  1000.9hPa Calm   9.0mph /  14.5km/h 27% 0.00in /  0mm meteobridge W/m2
14:03 83.3 °F /  28.5 °C 45.9 °F /  7.7 °C 29.56in /  1000.9hPa South 6.0mph /  9.7km/h 12.0mph /  19.3km/h 27% 0.00in /  0mm meteobridge W/m2
14:09 83.1 °F /  28.4 °C 45.7 °F /  7.6 °C 29.55in /  1000.6hPa SSW 6.0mph /  9.7km/h 6.0mph /  9.7km/h 27% 0.00in /  0mm meteobridge W/m2
14:15 84.9 °F /  29.4 °C 47.1 °F /  8.4 °C 29.56in /  1000.9hPa SSW 11.0mph /  17.7km/h 13.0mph /  20.9km/h 27% 0.00in /  0mm meteobridge W/m2
14:21 83.5 °F /  28.6 °C 46.0 °F /  7.8 °C 29.56in /  1000.9hPa NNW 4.0mph /  6.4km/h 16.0mph /  25.7km/h 27% 0.00in /  0mm meteobridge W/m2
14:28 82.9 °F /  28.3 °C 45.5 °F /  7.5 °C 29.55in /  1000.6hPa East 0.9mph /  1.4km/h 9.0mph /  14.5km/h 27% 0.00in /  0mm meteobridge W/m2
14:34 82.6 °F /  28.1 °C 46.2 °F /  7.9 °C 29.55in /  1000.6hPa SE 4.0mph /  6.4km/h 6.0mph /  9.7km/h 28% 0.00in /  0mm meteobridge W/m2
14:40 84.6 °F /  29.2 °C 46.9 °F /  8.3 °C 29.53in /  999.9hPa SSW 8.9mph /  14.3km/h 16.0mph /  25.7km/h 27% 0.00in /  0mm meteobridge W/m2
14:46 82.8 °F /  28.2 °C 46.4 °F /  8 °C 29.55in /  1000.6hPa South 11.0mph /  17.7km/h 19.0mph /  30.6km/h 28% 0.00in /  0mm meteobridge W/m2
14:52 81.0 °F /  27.2 °C 45.7 °F /  7.6 °C 29.55in /  1000.6hPa Calm   1.0mph /  1.6km/h 29% 0.00in /  0mm meteobridge W/m2
14:58 81.0 °F /  27.2 °C 45.7 °F /  7.6 °C 29.54in /  1000.2hPa Calm   5.0mph /  8km/h 29% 0.00in /  0mm meteobridge W/m2
15:04 80.6 °F /  27 °C 45.3 °F /  7.4 °C 29.54in /  1000.2hPa SE 6.0mph /  9.7km/h 14.0mph /  22.5km/h 29% 0.00in /  0mm meteobridge W/m2
15:10 80.8 °F /  27.1 °C 46.4 °F /  8 °C 29.54in /  1000.2hPa SE 13.0mph /  20.9km/h 13.0mph /  20.9km/h 30% 0.00in /  0mm meteobridge W/m2
15:17 81.7 °F /  27.6 °C 46.4 °F /  8 °C 29.54in /  1000.2hPa SSE 10.1mph /  16.3km/h 14.0mph /  22.5km/h 29% 0.00in /  0mm meteobridge W/m2
15:23 81.3 °F /  27.4 °C 46.0 °F /  7.8 °C 29.54in /  1000.2hPa South 2.9mph /  4.7km/h 11.0mph /  17.7km/h 29% 0.00in /  0mm meteobridge W/m2
15:29 82.4 °F /  28 °C 46.0 °F /  7.8 °C 29.53in /  999.9hPa South 10.1mph /  16.3km/h 15.0mph /  24.1km/h 28% 0.00in /  0mm meteobridge W/m2
15:35 82.6 °F /  28.1 °C 46.2 °F /  7.9 °C 29.54in /  1000.2hPa SE 6.9mph /  11.1km/h 9.0mph /  14.5km/h 28% 0.00in /  0mm meteobridge W/m2
15:41 82.8 °F /  28.2 °C 46.4 °F /  8 °C 29.54in /  1000.2hPa SE 8.9mph /  14.3km/h 9.0mph /  14.5km/h 28% 0.00in /  0mm meteobridge W/m2
15:47 82.8 °F /  28.2 °C 46.4 °F /  8 °C 29.53in /  999.9hPa ENE 4.0mph /  6.4km/h 5.0mph /  8km/h 28% 0.00in /  0mm meteobridge W/m2
15:53 84.0 °F /  28.9 °C 47.5 °F /  8.6 °C 29.53in /  999.9hPa SSE 11.0mph /  17.7km/h 11.0mph /  17.7km/h 28% 0.00in /  0mm meteobridge W/m2
15:59 83.1 °F /  28.4 °C 46.6 °F /  8.1 °C 29.53in /  999.9hPa SSE 11.0mph /  17.7km/h 12.0mph /  19.3km/h 28% 0.00in /  0mm meteobridge W/m2
16:06 81.9 °F /  27.7 °C 45.5 °F /  7.5 °C 29.52in /  999.5hPa SSE 6.9mph /  11.1km/h 12.0mph /  19.3km/h 28% 0.00in /  0mm meteobridge W/m2
16:12 82.2 °F /  27.9 °C 45.9 °F /  7.7 °C 29.52in /  999.5hPa South 2.9mph /  4.7km/h 6.0mph /  9.7km/h 28% 0.00in /  0mm meteobridge W/m2
16:18 82.6 °F /  28.1 °C 46.2 °F /  7.9 °C 29.52in /  999.5hPa SE 8.9mph /  14.3km/h 10.0mph /  16.1km/h 28% 0.00in /  0mm meteobridge W/m2
16:24 83.1 °F /  28.4 °C 46.6 °F /  8.1 °C 29.52in /  999.5hPa Calm   9.0mph /  14.5km/h 28% 0.00in /  0mm meteobridge W/m2
16:30 82.8 °F /  28.2 °C 46.4 °F /  8 °C 29.52in /  999.5hPa SSE 6.0mph /  9.7km/h 11.0mph /  17.7km/h 28% 0.00in /  0mm meteobridge W/m2
16:36 81.7 °F /  27.6 °C 46.4 °F /  8 °C 29.52in /  999.5hPa South 0.9mph /  1.4km/h 2.0mph /  3.2km/h 29% 0.00in /  0mm meteobridge W/m2
16:42 82.0 °F /  27.8 °C 45.7 °F /  7.6 °C 29.51in /  999.2hPa SSW 0.9mph /  1.4km/h 3.0mph /  4.8km/h 28% 0.00in /  0mm meteobridge W/m2
16:49 82.9 °F /  28.3 °C 46.4 °F /  8 °C 29.51in /  999.2hPa South 4.0mph /  6.4km/h 13.0mph /  20.9km/h 28% 0.00in /  0mm meteobridge W/m2
16:55 83.5 °F /  28.6 °C 46.9 °F /  8.3 °C 29.50in /  998.9hPa SW 2.9mph /  4.7km/h 7.0mph /  11.3km/h 28% 0.00in /  0mm meteobridge W/m2
17:01 83.5 °F /  28.6 °C 46.9 °F /  8.3 °C 29.50in /  998.9hPa SSW 6.0mph /  9.7km/h 12.0mph /  19.3km/h 28% 0.00in /  0mm meteobridge W/m2
17:07 82.6 °F /  28.1 °C 46.2 °F /  7.9 °C 29.50in /  998.9hPa SSW 10.1mph /  16.3km/h 14.0mph /  22.5km/h 28% 0.00in /  0mm meteobridge W/m2
17:25 82.9 °F /  28.3 °C 46.4 °F /  8 °C 29.50in /  998.9hPa South 12.1mph /  19.5km/h 13.0mph /  20.9km/h 28% 0.00in /  0mm meteobridge W/m2
17:31 82.9 °F /  28.3 °C 46.4 °F /  8 °C 29.50in /  998.9hPa South 8.9mph /  14.3km/h 12.0mph /  19.3km/h 28% 0.00in /  0mm meteobridge W/m2
17:37 83.3 °F /  28.5 °C 46.8 °F /  8.2 °C 29.50in /  998.9hPa SSW 6.9mph /  11.1km/h 15.0mph /  24.1km/h 28% 0.00in /  0mm meteobridge W/m2
17:43 83.3 °F /  28.5 °C 46.8 °F /  8.2 °C 29.50in /  998.9hPa South 8.9mph /  14.3km/h 16.0mph /  25.7km/h 28% 0.00in /  0mm meteobridge W/m2
17:50 82.9 °F /  28.3 °C 46.4 °F /  8 °C 29.50in /  998.9hPa South 6.0mph /  9.7km/h 13.0mph /  20.9km/h 28% 0.00in /  0mm meteobridge W/m2
17:56 83.1 °F /  28.4 °C 46.6 °F /  8.1 °C 29.50in /  998.9hPa SSE 6.0mph /  9.7km/h 7.0mph /  11.3km/h 28% 0.00in /  0mm meteobridge W/m2
18:02 82.8 °F /  28.2 °C 46.4 °F /  8 °C 29.51in /  999.2hPa SSW 4.9mph /  7.9km/h 10.0mph /  16.1km/h 28% 0.00in /  0mm meteobridge W/m2
18:08 80.8 °F /  27.1 °C 45.5 °F /  7.5 °C 29.51in /  999.2hPa South 6.0mph /  9.7km/h 11.0mph /  17.7km/h 29% 0.00in /  0mm meteobridge W/m2
18:14 81.0 °F /  27.2 °C 45.7 °F /  7.6 °C 29.51in /  999.2hPa SSE 8.9mph /  14.3km/h 13.0mph /  20.9km/h 29% 0.00in /  0mm meteobridge W/m2
18:20 81.7 °F /  27.6 °C 46.4 °F /  8 °C 29.51in /  999.2hPa SE 8.9mph /  14.3km/h 11.0mph /  17.7km/h 29% 0.00in /  0mm meteobridge W/m2
18:26 81.3 °F /  27.4 °C 46.0 °F /  7.8 °C 29.51in /  999.2hPa South 2.0mph /  3.2km/h 8.0mph /  12.9km/h 29% 0.00in /  0mm meteobridge W/m2
18:33 81.3 °F /  27.4 °C 45.1 °F /  7.3 °C 29.52in /  999.5hPa SSE 11.0mph /  17.7km/h 13.0mph /  20.9km/h 28% 0.00in /  0mm meteobridge W/m2
18:39 81.0 °F /  27.2 °C 45.7 °F /  7.6 °C 29.52in /  999.5hPa South 8.1mph /  13km/h 10.0mph /  16.1km/h 29% 0.00in /  0mm meteobridge W/m2
18:45 81.1 °F /  27.3 °C 45.0 °F /  7.2 °C 29.52in /  999.5hPa SE 6.9mph /  11.1km/h 13.0mph /  20.9km/h 28% 0.00in /  0mm meteobridge W/m2
18:51 81.0 °F /  27.2 °C 44.8 °F /  7.1 °C 29.52in /  999.5hPa South 8.9mph /  14.3km/h 14.0mph /  22.5km/h 28% 0.00in /  0mm meteobridge W/m2
18:57 80.8 °F /  27.1 °C 45.5 °F /  7.5 °C 29.52in /  999.5hPa SSE 4.9mph /  7.9km/h 10.0mph /  16.1km/h 29% 0.00in /  0mm meteobridge W/m2
19:03 80.8 °F /  27.1 °C 44.6 °F /  7 °C 29.53in /  999.9hPa SSE 10.1mph /  16.3km/h 10.1mph /  16.3km/h 28% 0.00in /  0mm meteobridge W/m2
19:09 80.6 °F /  27 °C 44.4 °F /  6.9 °C 29.53in /  999.9hPa SSW 2.9mph /  4.7km/h 8.0mph /  12.9km/h 28% 0.00in /  0mm meteobridge W/m2
19:15 80.2 °F /  26.8 °C 44.2 °F /  6.8 °C 29.54in /  1000.2hPa South 4.9mph /  7.9km/h 9.0mph /  14.5km/h 28% 0.00in /  0mm meteobridge W/m2
19:21 79.5 °F /  26.4 °C 44.4 °F /  6.9 °C 29.54in /  1000.2hPa SSE 0.9mph /  1.4km/h 5.0mph /  8km/h 29% 0.00in /  0mm meteobridge W/m2
19:28 79.3 °F /  26.3 °C 44.2 °F /  6.8 °C 29.54in /  1000.2hPa SSE 0.9mph /  1.4km/h 1.0mph /  1.6km/h 29% 0.00in /  0mm meteobridge W/m2
19:34 79.3 °F /  26.3 °C 44.2 °F /  6.8 °C 29.55in /  1000.6hPa SSE 0.9mph /  1.4km/h -999.0mph /  -1607.7km/h 29% 0.00in /  0mm meteobridge W/m2
19:41 79.3 °F /  26.3 °C 44.2 °F /  6.8 °C 29.55in /  1000.6hPa North -999.9mph /  -1609.1km/h -999.0mph /  -1607.7km/h 29% 0.00in /  0mm meteobridge W/m2
Regenstein, Windhoek, Namibia
Compliments of Weather Underground - 2.5 mb